Al Karkh, Iraq
Current Conditions -  °F | °C
As of 2:00 AM on Friday 21 Nov 2014 (Local Time) from ORBI Reporting Station
Few Clouds Few Clouds  
Wind Chill: 54°   Ceiling: Unl
Heat Index: 54°   Visibility: 6mi
Dew Point: 46°   Wind: 3mph
Humidity: 77%   Direction: 30°NNE
Pressure: 30.09"   Gusts: NA
Location:  33.33°N, 44.33°E
Report Text: ORBI 202300Z 03003KT 9000 FEW033 12/08 Q1019 NOSIG
Loading
Personal Weather Stations






























Interactive Weather Map New forecast layout! Learn more

10-Day Weather Forecast

Advertisements
Track Severe Weather on mobile